Redwood City, CA (94065)

2:25 PM PDT on August 29, 2014 (GMT -0700)
Neighborhood 4 | Change Station
CLOSE
Current Station
Personal Weather Station
Location: Foster City, CA
Elevation: 12 ft
Nearby Weather Stations

Elev 12 ft 37.55 °N, 122.26 °W | Updated 8 seconds ago

Mostly Cloudy
Mostly Cloudy
74.8 °F
Feels Like 77 °F
N
0.0
Wind Variable Wind from West
Gusts 3.0 mph

Today
High -- | Low -- °F
--% Chance of Precip.
Yesterday
High -- | Low -- °F
Precip. -- in
6:36 AM 7:42 PM
Waxing Crescent, 16% visible
Pressure 29.90 in
Visibility 10.0 miles
Clouds Few 2000 ft
Mostly Cloudy 18000 ft
Heat Index 77 °F
Dew Point 62 °F
Humidity 65%
Rainfall 0.00 in
Snow Depth Not available.
UV 5.0 out of 12
Pollen 7.40 out of 12
PM2.5 Good
Flu Activity Not available.
METAR KSQL 292047Z 33010KT 10SM FEW020 BKN180 23/16 A2990

More Conditions Fewer Conditions

Pressure 29.90 in
Visibility 10.0 miles
Clouds Few 2000 ft
Mostly Cloudy 18000 ft
Heat Index 77 °F
Dew Point 62 °F
Humidity 65%
Rainfall 0.00 in
Snow Depth Not available.
UV 5.0 out of 12
Pollen 7.40 out of 12
PM2.5 Good
Flu Activity Not available.
METAR KSQL 292047Z 33010KT 10SM FEW020 BKN180 23/16 A2990

More Conditions Fewer Conditions

10-Day Weather Forecast

Almanac

Astronomy

Aug. 29, 2014 Rise Set
Actual Time 6:36 AM PDT 7:42 PM PDT
Civil Twilight 6:09 AM PDT 8:09 PM PDT
Nautical Twilight 5:37 AM PDT 8:41 PM PDT
Astronomical Twilight 5:04 AM PDT 9:14 PM PDT
Moon 10:26 AM PDT 9:48 PM PDT
Length of Visible Light 13h 59m
Length of Day
13h 05m
Tomorrow will be 2m 17s shorter.
Waxing Crescent, 16% of the Moon is Illuminated
Today
Waxing Crescent
Sep 2
First Quarter
Sep 8
Full
Sep 15
Last Quarter
Sep 24
New

Today's Extremes

State Highs State Lows

Community

WunderPhotos

Upload Photos

1,748,348 photos uploaded!

Nearby

Air Quality

  Air Quality AQ Index Pollutant
Yesterday Good
PM2.5
Yesterday Good
OZONE
Current Good
PM2.5
Friday Good
PM2.5
Saturday Good
PM2.5
Sunday Good
OZONE
Monday Good
OZONE
Tuesday Good
PM2.5
Wednesday Good
OZONE

Snow Depth

Station Depth Elevation
Fallen Leaf 0 in 6300 ft
Leavitt Meadows 0 in 7200 ft
Summit Meadow 0 in 9122 ft
CSS Lab 1 in 6900 ft
Monitor Pass 0 in 8350 ft

Earthquake Activity

City Distance Mag. Time & Date
Napa, California 49 miles 2.6 11:57 AM PDT
2014-08-27
The Geysers, California 93 miles 2.6 7:42 AM PDT
2014-08-27
Minimum magnitude displayed is 2.5.

Coastal Water Temperatures

Place Temperature
No Stations Reporting

Nearby Weather Stations